Briefing drone pour Neuvic

Rechercher une autre localisation

Conditions de vol :


Nous sommes le : Vendredi 30 juillet 2021
Il est 17:11 UTC (19:11 LT)

Lever de soleil : 04:15 UTC (06:15 LT)
Coucher de soleil : 19:54 UTC (21:54 LT)

Météo

L'essentiel des conditions de vol

VIGILANCE MÉTÉO FRANCE - Dordogne (24)
Pas de vigilances particulieres
METAR de LFBX
LFBX 301700Z AUTO 29008KT 9999 FEW029/// BKN066/// BKN078/// ///CB 23/16 Q1014

Date d'émission: 30/07/2021
Heure d'émission: 17:00 UTC
Vent: 290° pour 8 KT (15 km/h)
Visibilité horizontale: > 10 km
Plafond :
- Peu de nuages à 2900ft (884m)
- Nuages morcelés à 6600ft (2012m)
- Nuages morcelés à 7800ft (2377m)
Température: 23 °C
Point de rosée: 16 °C
Humidité: 65%
Pression (QNH): 1014 hPa
Prévision 24h pour Perigueux (13 km)
Vent : 306° pour 2 KT (7 km/h)
Temperature Maxi: 17 °C
Temperature Min: 17 °C
Humidité : 72%
Condition : Couvert



Warning: count(): Parameter must be an array or an object that implements Countable in /homepages/6/d509196549/htdocs/droneoxygene/briefing.php on line 743
WEBCAM POUR NEUVIC

Réglementation

Voler en sécurité

CARTES AERONAUTIQUE 1/500.000
CARTES VAC (LFBX)
SUP AIP




Chargement des AIP...
NOTAM (NEUVIC + Terrain à proximité / FIR )




Chargement des NOTAMS...
CONTACT PREFECTURE 24


Avertissement : Les données mises à disposition sont indicatives. Oxygène Drone ne pourra être tenu responsable de dégâts causés aux biens et aux personnes.